createdAt,value
2023-01-07T00:00:10.737Z,29.70
2023-01-07T00:08:02.680Z,29.10
2023-01-07T00:22:21.255Z,20.80
2023-01-07T00:27:27.952Z,43.20
2023-01-07T00:30:03.499Z,32.50
2023-01-07T00:37:54.812Z,24.10
2023-01-07T00:40:27.481Z,31.10
2023-01-07T00:46:52.110Z,19.50
2023-01-07T00:49:27.663Z,30.60
2023-01-07T00:52:49.596Z,53.00
2023-01-07T01:00:27.695Z,48.40
2023-01-07T01:03:54.976Z,46.70
2023-01-07T01:20:58.399Z,35.80
2023-01-07T01:28:20.880Z,41.70
2023-01-07T01:39:58.093Z,30.70
2023-01-07T01:47:03.299Z,44.20
2023-01-07T01:53:57.282Z,58.40
2023-01-07T02:05:08.199Z,31.00
2023-01-07T02:21:27.106Z,28.20
2023-01-07T02:25:00.533Z,26.50
2023-01-07T02:53:51.405Z,22.30
2023-01-07T03:01:37.198Z,42.40
2023-01-07T03:09:21.555Z,43.90
2023-01-07T03:20:48.927Z,27.50
2023-01-07T03:32:19.198Z,13.70
2023-01-07T03:47:54.461Z,10.40
2023-01-07T03:50:59.764Z,13.10
2023-01-07T03:53:32.771Z,9.90
2023-01-07T04:18:27.420Z,11.40
2023-01-07T04:29:07.277Z,7.10
2023-01-07T04:31:40.316Z,5.50
2023-01-07T04:43:45.665Z,7.30
2023-01-07T05:04:10.441Z,12.40
2023-01-07T05:07:05.269Z,7.70
2023-01-07T05:09:44.831Z,7.40
2023-01-07T05:16:49.026Z,15.00
2023-01-07T05:20:12.411Z,13.70
2023-01-07T05:31:54.360Z,17.80
2023-01-07T05:34:28.664Z,19.20
2023-01-07T05:45:02.124Z,25.30
2023-01-07T05:55:50.357Z,28.20
2023-01-07T05:59:14.358Z,25.80
2023-01-07T06:06:17.101Z,23.60
2023-01-07T06:14:08.661Z,21.90
2023-01-07T06:18:31.443Z,20.70
2023-01-07T06:21:11.477Z,21.30
2023-01-07T06:23:59.907Z,22.70
2023-01-07T06:27:18.548Z,23.10
2023-01-07T06:29:51.435Z,23.70
2023-01-07T06:37:14.996Z,26.20
2023-01-07T06:39:56.641Z,25.80
2023-01-07T06:43:21.795Z,24.20
2023-01-07T06:47:46.111Z,29.50
2023-01-07T06:51:08.477Z,29.70
2023-01-07T06:53:44.093Z,35.00
2023-01-07T06:57:15.726Z,32.40
2023-01-07T07:00:11.943Z,50.20
2023-01-07T07:03:33.990Z,33.20
2023-01-07T07:06:07.701Z,32.40
2023-01-07T07:12:30.124Z,30.80
2023-01-07T07:15:10.514Z,28.30
2023-01-07T07:17:43.167Z,33.30
2023-01-07T07:20:21.109Z,29.20
2023-01-07T07:22:53.625Z,27.10
2023-01-07T07:25:26.542Z,36.50
2023-01-07T07:33:24.090Z,28.20
2023-01-07T07:35:56.595Z,27.50
2023-01-07T07:38:29.024Z,32.60
2023-01-07T07:41:08.049Z,29.70
2023-01-07T07:43:41.392Z,29.00
2023-01-07T07:46:40.033Z,29.10
2023-01-07T07:50:33.071Z,27.50
2023-01-07T07:56:56.221Z,30.10
2023-01-07T07:59:28.785Z,30.90
2023-01-07T08:02:57.790Z,37.90
2023-01-07T08:09:58.817Z,34.50
2023-01-07T08:12:33.038Z,37.10
2023-01-07T08:15:57.026Z,39.30
2023-01-07T08:18:31.790Z,44.10
2023-01-07T08:21:36.802Z,43.20
2023-01-07T08:25:16.143Z,40.20
2023-01-07T08:27:57.449Z,40.60
2023-01-07T08:30:30.820Z,43.10
2023-01-07T08:33:04.267Z,44.00
2023-01-07T08:36:23.159Z,42.60
2023-01-07T08:38:58.831Z,39.10
2023-01-07T08:46:47.927Z,44.00
2023-01-07T08:49:26.985Z,42.20
2023-01-07T08:51:59.383Z,40.00
2023-01-07T08:55:40.256Z,38.60
2023-01-07T08:58:12.744Z,38.60
2023-01-07T09:00:45.698Z,40.20
2023-01-07T09:03:24.964Z,38.00
2023-01-07T09:05:57.409Z,41.00
2023-01-07T09:08:31.631Z,31.10
2023-01-07T09:12:27.068Z,30.50
2023-01-07T09:15:02.246Z,29.80
2023-01-07T09:18:24.036Z,24.90
2023-01-07T09:25:50.549Z,25.40
2023-01-07T09:42:01.576Z,20.70
2023-01-07T09:58:28.594Z,19.70
2023-01-07T10:38:19.374Z,14.90
2023-01-07T10:45:59.335Z,12.70
2023-01-07T10:49:10.458Z,11.10
2023-01-07T11:03:40.329Z,8.80
2023-01-07T11:06:15.592Z,9.70
2023-01-07T11:09:50.341Z,16.90
2023-01-07T11:20:59.137Z,11.80
2023-01-07T11:24:47.467Z,10.80
2023-01-07T11:36:07.808Z,11.20
2023-01-07T11:52:30.212Z,9.80
2023-01-07T11:56:08.424Z,12.60
2023-01-07T11:58:49.195Z,22.10
2023-01-07T12:02:03.823Z,14.20
2023-01-07T12:04:43.077Z,13.00
2023-01-07T12:16:15.953Z,27.60
2023-01-07T12:19:15.602Z,24.30
2023-01-07T12:35:50.383Z,16.80
2023-01-07T12:54:04.521Z,17.00
2023-01-07T12:57:12.491Z,19.40
2023-01-07T13:04:08.569Z,22.40
2023-01-07T13:14:13.123Z,26.40
2023-01-07T13:16:45.823Z,23.90
2023-01-07T13:19:37.011Z,27.30
2023-01-07T13:26:28.250Z,24.90
2023-01-07T13:29:20.925Z,23.50
2023-01-07T13:41:14.862Z,31.00
2023-01-07T13:53:08.374Z,26.40
2023-01-07T14:01:09.690Z,27.30
2023-01-07T14:08:15.611Z,26.90
2023-01-07T14:16:21.080Z,28.80
2023-01-07T14:23:39.537Z,27.30
2023-01-07T14:39:55.125Z,27.90
2023-01-07T14:47:47.132Z,26.40
2023-01-07T14:50:32.981Z,25.70
2023-01-07T14:53:49.597Z,25.20
2023-01-07T14:56:33.046Z,28.70
2023-01-07T14:59:38.383Z,30.70
2023-01-07T15:02:38.462Z,28.40
2023-01-07T15:05:57.857Z,25.20
2023-01-07T15:09:08.331Z,25.40
2023-01-07T15:12:08.735Z,24.90
2023-01-07T15:15:06.966Z,27.20
2023-01-07T15:17:45.029Z,29.40
2023-01-07T15:20:21.030Z,33.40
2023-01-07T15:23:11.034Z,32.70
2023-01-07T15:25:55.351Z,35.10
2023-01-07T15:28:42.321Z,44.40
2023-01-07T15:31:22.783Z,33.70
2023-01-07T15:34:12.087Z,31.30
2023-01-07T15:36:47.450Z,31.80
2023-01-07T15:39:29.749Z,31.70
2023-01-07T15:42:05.840Z,40.40
2023-01-07T15:44:45.464Z,40.30
2023-01-07T15:47:41.834Z,42.70
2023-01-07T15:50:27.720Z,41.80
2023-01-07T15:53:01.797Z,44.10
2023-01-07T15:55:37.570Z,39.60
2023-01-07T15:58:16.548Z,44.70
2023-01-07T16:00:52.922Z,42.60
2023-01-07T16:03:29.124Z,37.90
2023-01-07T16:06:02.206Z,33.30
2023-01-07T16:08:35.425Z,40.90
2023-01-07T16:17:19.792Z,41.50
2023-01-07T16:19:52.216Z,36.60
2023-01-07T16:22:28.829Z,40.90
2023-01-07T16:25:02.555Z,40.80
2023-01-07T16:27:38.733Z,40.90
2023-01-07T16:30:17.453Z,35.70
2023-01-07T16:32:50.120Z,38.70
2023-01-07T16:35:39.157Z,37.10
2023-01-07T16:38:16.700Z,41.10
2023-01-07T16:40:55.431Z,41.20
2023-01-07T16:43:46.821Z,37.50
2023-01-07T16:46:30.111Z,39.00
2023-01-07T16:49:31.665Z,39.30
2023-01-07T16:52:14.348Z,41.70
2023-01-07T16:54:47.816Z,41.30
2023-01-07T16:57:39.852Z,45.60
2023-01-07T17:00:25.292Z,43.30
2023-01-07T17:03:01.022Z,53.40
2023-01-07T17:05:35.279Z,59.00
2023-01-07T17:08:39.286Z,55.50
2023-01-07T17:11:24.508Z,61.50
2023-01-07T17:13:56.881Z,59.60
2023-01-07T17:16:33.617Z,66.80
2023-01-07T17:19:27.447Z,61.20
2023-01-07T17:22:00.028Z,59.30
2023-01-07T17:24:52.532Z,73.50
2023-01-07T17:27:31.051Z,67.30
2023-01-07T17:30:08.793Z,71.30
2023-01-07T17:32:43.558Z,68.50
2023-01-07T17:35:23.274Z,71.10
2023-01-07T17:37:56.889Z,65.90
2023-01-07T17:40:29.539Z,67.20
2023-01-07T17:43:34.868Z,70.10
2023-01-07T17:46:10.382Z,69.50
2023-01-07T17:48:42.806Z,70.00
2023-01-07T17:51:15.360Z,72.70
2023-01-07T17:53:49.451Z,73.80
2023-01-07T17:56:22.500Z,74.50
2023-01-07T17:58:56.229Z,73.40
2023-01-07T18:01:29.421Z,70.30
2023-01-07T18:04:02.234Z,70.60
2023-01-07T18:06:35.127Z,73.40
2023-01-07T18:09:08.751Z,72.40
2023-01-07T18:12:01.998Z,65.40
2023-01-07T18:14:34.472Z,77.80
2023-01-07T18:17:07.928Z,69.70
2023-01-07T18:19:40.421Z,72.00
2023-01-07T18:22:19.979Z,67.20
2023-01-07T18:24:52.748Z,84.80
2023-01-07T18:27:25.433Z,79.70
2023-01-07T18:29:58.083Z,82.80
2023-01-07T18:32:58.216Z,133.90
2023-01-07T18:35:30.926Z,170.90
2023-01-07T18:38:03.517Z,156.10
2023-01-07T18:40:35.908Z,158.70
2023-01-07T18:43:08.735Z,187.30
2023-01-07T18:45:43.305Z,178.80
2023-01-07T18:48:19.290Z,198.70
2023-01-07T18:50:53.980Z,199.40
2023-01-07T18:53:27.434Z,198.00
2023-01-07T18:56:03.867Z,197.70
2023-01-07T18:58:37.695Z,206.10
2023-01-07T19:01:11.922Z,215.40
2023-01-07T19:03:44.585Z,215.60
2023-01-07T19:06:19.120Z,234.50
2023-01-07T19:08:51.640Z,230.40
2023-01-07T19:11:31.578Z,239.60
2023-01-07T19:14:04.069Z,220.80
2023-01-07T19:16:39.058Z,223.60
2023-01-07T19:19:26.531Z,248.00
2023-01-07T19:22:01.285Z,240.20
2023-01-07T19:24:36.406Z,246.10
2023-01-07T19:27:08.888Z,265.20
2023-01-07T19:29:41.550Z,253.80
2023-01-07T19:32:14.007Z,247.80
2023-01-07T19:34:46.843Z,222.10
2023-01-07T19:37:22.042Z,236.20
2023-01-07T19:39:55.816Z,258.50
2023-01-07T19:42:28.791Z,286.20
2023-01-07T19:45:01.540Z,294.80
2023-01-07T19:47:35.496Z,302.40
2023-01-07T19:50:09.873Z,350.50
2023-01-07T19:52:47.564Z,376.10
2023-01-07T19:55:22.447Z,365.80
2023-01-07T19:58:02.355Z,395.30
2023-01-07T20:00:39.107Z,402.50
2023-01-07T20:03:11.635Z,412.50
2023-01-07T20:10:28.830Z,343.60
2023-01-07T20:13:01.384Z,325.60
2023-01-07T20:15:33.803Z,330.20
2023-01-07T20:18:09.292Z,302.00
2023-01-07T20:22:34.501Z,304.00
2023-01-07T20:25:16.821Z,271.90
2023-01-07T20:27:49.230Z,236.90
2023-01-07T20:30:27.972Z,225.80
2023-01-07T20:33:00.319Z,272.00
2023-01-07T20:35:39.886Z,328.60
2023-01-07T20:38:12.322Z,321.00
2023-01-07T20:40:50.802Z,315.50
2023-01-07T20:43:23.096Z,356.40
2023-01-07T20:46:03.960Z,406.40
2023-01-07T20:49:25.462Z,463.50
2023-01-07T20:52:30.797Z,476.60
2023-01-07T20:55:03.292Z,394.10
2023-01-07T20:57:44.765Z,395.20
2023-01-07T21:01:07.643Z,336.50
2023-01-07T21:04:02.277Z,302.30
2023-01-07T21:11:24.872Z,196.50
2023-01-07T21:22:30.071Z,203.50
2023-01-07T21:34:44.481Z,230.40
2023-01-07T21:37:16.999Z,214.50
2023-01-07T21:40:02.253Z,220.60
2023-01-07T21:43:15.747Z,239.00
2023-01-07T21:45:48.124Z,231.40
2023-01-07T21:48:23.186Z,243.40
2023-01-07T21:50:55.596Z,245.80
2023-01-07T21:53:33.536Z,242.60
2023-01-07T21:56:22.105Z,224.00
2023-01-07T21:58:54.558Z,223.00
2023-01-07T22:01:31.869Z,219.70
2023-01-07T22:04:04.578Z,229.30
2023-01-07T22:06:38.471Z,206.50
2023-01-07T22:12:15.588Z,209.70
2023-01-07T22:14:48.092Z,210.40
2023-01-07T22:17:20.731Z,216.60
2023-01-07T22:19:53.078Z,218.70
2023-01-07T22:22:27.283Z,210.30
2023-01-07T22:24:59.787Z,201.00
2023-01-07T22:27:33.658Z,192.60
2023-01-07T22:30:38.064Z,211.70
2023-01-07T22:33:10.624Z,208.60
2023-01-07T22:35:43.234Z,164.90
2023-01-07T22:38:46.121Z,193.90
2023-01-07T22:41:47.485Z,162.90
2023-01-07T22:53:25.972Z,185.40
2023-01-07T23:04:30.298Z,153.20
2023-01-07T23:12:06.275Z,153.00
2023-01-07T23:14:38.762Z,174.10
2023-01-07T23:21:01.238Z,147.00
2023-01-07T23:23:33.837Z,157.60
2023-01-07T23:31:07.183Z,150.00
2023-01-07T23:34:52.397Z,138.60
2023-01-07T23:37:30.863Z,142.20
2023-01-07T23:40:03.696Z,133.80
2023-01-07T23:43:03.692Z,132.90
2023-01-07T23:45:36.159Z,132.30
2023-01-07T23:48:37.133Z,130.80
2023-01-07T23:51:58.810Z,127.20
2023-01-07T23:54:44.339Z,128.80
2023-01-07T23:57:42.859Z,122.70
